Perry County Municipal, IN

1:21 AM CDT on July 28, 2014 (GMT -0500)
RMR - Owensboro (KKYOWENS12) Elev 387 ft | 37.83 °N, 87.02 °W | Change Station

Current weather conditions updated 9 minutes ago

Clear
Clear
71.4 °F
Feels Like 74 °F
N
0.0
Wind Variable Wind from NW
Gusts 0.0 mph

Today is forecast to be Much Cooler than yesterday.

Today
High -- | Low -- °F
--% Chance of Precip.
Yesterday
High -- | Low -- °F
Precip. -- in
5:46 AM 7:59 PM
New Moon, 2% visible
Pressure 29.92 in
Visibility 10.0 miles
Clouds Clear
Heat Index 74 °F
Dew Point 61 °F
Humidity 70%
Rainfall 0.00 in
Snow Depth Not available.
UV 0 out of 12
Pollen 6.30 out of 12
Air Quality Not available.
Flu Activity Not available.
METAR KOWB 280556Z AUTO 32007KT 10SM CLR 22/14 A2993 RMK AO2 51016 T02220144 10300 20222 SLP131

More Conditions Fewer Conditions

Pressure 29.92 in
Visibility 10.0 miles
Clouds Clear
Heat Index 74 °F
Dew Point 61 °F
Humidity 70%
Rainfall 0.00 in
Snow Depth Not available.
UV 0 out of 12
Pollen 6.30 out of 12
Air Quality Not available.
Flu Activity Not available.
METAR KOWB 280556Z AUTO 32007KT 10SM CLR 22/14 A2993 RMK AO2 51016 T02220144 10300 20222 SLP131

More Conditions Fewer Conditions

10-Day Weather Forecast

Almanac

Astronomy

Jul. 28, 2014 Rise Set
Actual Time 5:46 AM CDT 7:59 PM CDT
Civil Twilight 5:16 AM CDT 8:29 PM CDT
Nautical Twilight 4:40 AM CDT 9:05 PM CDT
Astronomical Twilight 4:00 AM CDT 9:44 PM CDT
Moon 7:24 AM CDT 8:44 PM CDT
Length of Visible Light 15h 12m
Length of Day
14h 13m
Tomorrow will be 1m 44s shorter.
New Moon, 2% of the Moon is Illuminated
Today
New Moon
Aug 3
First Quarter
Aug 10
Full
Aug 17
Last Quarter
Aug 25
New

Today's Extremes

State Highs State Lows

Community

WunderPhotos

Upload Photos

1,738,289 photos uploaded!

Nearby

Snow Depth

Station Depth Elevation
No new snow has been reported.

Earthquake Activity

City Distance Mag. Time & Date
No recent earthquake activity has been reported nearby.
Minimum magnitude displayed is 2.5.

Coastal Water Temperatures

Place Temperature
No Stations Reporting

Nearby Weather Stations

Station Location Temp. Heat Index Dew Point Humidity Wind Precip. Elev Updated Type
RMR - Owensboro, Owensboro, KY 71.4 °F 74 °F 61 °F 70% NW  at  0.0 mph 0.00 in / hr 387 ft 1:11 AM CDT Normal

Show More Stations Show Fewer Stations